sensor_id;sensor_type;location;lat;lon;timestamp;pressure;altitude;pressure_sealevel;temperature
75822;BMP180;64454;51.984;9.838;2023-04-25T00:01:45;99334.00;;;8.90
75822;BMP180;64454;51.984;9.838;2023-04-25T00:04:12;99341.00;;;8.80
75822;BMP180;64454;51.984;9.838;2023-04-25T00:06:39;99335.00;;;8.70
75822;BMP180;64454;51.984;9.838;2023-04-25T00:09:07;99336.00;;;8.70
75822;BMP180;64454;51.984;9.838;2023-04-25T00:11:36;99335.00;;;8.70
75822;BMP180;64454;51.984;9.838;2023-04-25T00:14:04;99342.00;;;8.80
75822;BMP180;64454;51.984;9.838;2023-04-25T00:16:32;99349.00;;;9.00
75822;BMP180;64454;51.984;9.838;2023-04-25T00:19:00;99349.00;;;9.00
75822;BMP180;64454;51.984;9.838;2023-04-25T00:21:27;99351.00;;;9.10
75822;BMP180;64454;51.984;9.838;2023-04-25T00:23:55;99358.00;;;8.80
75822;BMP180;64454;51.984;9.838;2023-04-25T00:26:22;99358.00;;;9.00
75822;BMP180;64454;51.984;9.838;2023-04-25T00:28:50;99356.00;;;9.10
75822;BMP180;64454;51.984;9.838;2023-04-25T00:31:17;99354.00;;;9.00
75822;BMP180;64454;51.984;9.838;2023-04-25T00:33:43;99352.00;;;8.80
75822;BMP180;64454;51.984;9.838;2023-04-25T00:36:10;99348.00;;;8.70
75822;BMP180;64454;51.984;9.838;2023-04-25T00:38:37;99341.00;;;8.80
75822;BMP180;64454;51.984;9.838;2023-04-25T00:41:06;99344.00;;;8.80
75822;BMP180;64454;51.984;9.838;2023-04-25T00:43:33;99349.00;;;8.90
75822;BMP180;64454;51.984;9.838;2023-04-25T00:46:01;99350.00;;;8.70
75822;BMP180;64454;51.984;9.838;2023-04-25T00:48:28;99347.00;;;8.60
75822;BMP180;64454;51.984;9.838;2023-04-25T00:50:58;99346.00;;;8.90
75822;BMP180;64454;51.984;9.838;2023-04-25T00:53:28;99350.00;;;8.80
75822;BMP180;64454;51.984;9.838;2023-04-25T00:55:55;99352.00;;;8.80
75822;BMP180;64454;51.984;9.838;2023-04-25T00:58:23;99337.00;;;8.70
75822;BMP180;64454;51.984;9.838;2023-04-25T01:00:51;99346.00;;;8.90
75822;BMP180;64454;51.984;9.838;2023-04-25T01:03:20;99342.00;;;9.00
75822;BMP180;64454;51.984;9.838;2023-04-25T01:05:47;99341.00;;;9.20
75822;BMP180;64454;51.984;9.838;2023-04-25T01:08:14;99343.00;;;9.00
75822;BMP180;64454;51.984;9.838;2023-04-25T01:10:42;99344.00;;;8.90
75822;BMP180;64454;51.984;9.838;2023-04-25T01:13:09;99336.00;;;9.10
75822;BMP180;64454;51.984;9.838;2023-04-25T01:15:37;99332.00;;;9.00
75822;BMP180;64454;51.984;9.838;2023-04-25T01:18:06;99334.00;;;9.10
75822;BMP180;64454;51.984;9.838;2023-04-25T01:20:34;99328.00;;;8.80
75822;BMP180;64454;51.984;9.838;2023-04-25T01:23:05;99336.00;;;8.80
75822;BMP180;64454;51.984;9.838;2023-04-25T01:25:32;99327.00;;;8.50
75822;BMP180;64454;51.984;9.838;2023-04-25T01:28:00;99338.00;;;8.30
75822;BMP180;64454;51.984;9.838;2023-04-25T01:30:28;99331.00;;;8.60
75822;BMP180;64454;51.984;9.838;2023-04-25T01:32:56;99328.00;;;8.70
75822;BMP180;64454;51.984;9.838;2023-04-25T01:35:23;99337.00;;;8.80
75822;BMP180;64454;51.984;9.838;2023-04-25T01:37:51;99331.00;;;8.50
75822;BMP180;64454;51.984;9.838;2023-04-25T01:40:21;99319.00;;;8.70
75822;BMP180;64454;51.984;9.838;2023-04-25T01:42:49;99330.00;;;8.80
75822;BMP180;64454;51.984;9.838;2023-04-25T01:45:16;99331.00;;;8.50
75822;BMP180;64454;51.984;9.838;2023-04-25T01:47:44;99330.00;;;8.30
75822;BMP180;64454;51.984;9.838;2023-04-25T01:50:15;99332.00;;;8.40
75822;BMP180;64454;51.984;9.838;2023-04-25T01:52:42;99333.00;;;8.50
75822;BMP180;64454;51.984;9.838;2023-04-25T01:55:09;99336.00;;;8.50
75822;BMP180;64454;51.984;9.838;2023-04-25T01:57:38;99340.00;;;8.50
75822;BMP180;64454;51.984;9.838;2023-04-25T02:00:07;99339.00;;;8.70
75822;BMP180;64454;51.984;9.838;2023-04-25T02:02:34;99336.00;;;8.70
75822;BMP180;64454;51.984;9.838;2023-04-25T02:05:01;99335.00;;;8.60
75822;BMP180;64454;51.984;9.838;2023-04-25T02:07:28;99337.00;;;8.60
75822;BMP180;64454;51.984;9.838;2023-04-25T02:09:55;99332.00;;;8.80
75822;BMP180;64454;51.984;9.838;2023-04-25T02:12:21;99337.00;;;8.80
75822;BMP180;64454;51.984;9.838;2023-04-25T02:14:50;99331.00;;;8.50
75822;BMP180;64454;51.984;9.838;2023-04-25T02:17:16;99342.00;;;8.30
75822;BMP180;64454;51.984;9.838;2023-04-25T02:19:44;99348.00;;;8.30
75822;BMP180;64454;51.984;9.838;2023-04-25T02:22:11;99337.00;;;8.30
75822;BMP180;64454;51.984;9.838;2023-04-25T02:24:38;99343.00;;;8.30
75822;BMP180;64454;51.984;9.838;2023-04-25T02:27:05;99348.00;;;8.30
75822;BMP180;64454;51.984;9.838;2023-04-25T02:29:33;99340.00;;;8.40
75822;BMP180;64454;51.984;9.838;2023-04-25T02:32:01;99359.00;;;8.40
75822;BMP180;64454;51.984;9.838;2023-04-25T02:34:28;99353.00;;;8.10
75822;BMP180;64454;51.984;9.838;2023-04-25T02:36:55;99348.00;;;8.20
75822;BMP180;64454;51.984;9.838;2023-04-25T02:39:22;99353.00;;;8.10
75822;BMP180;64454;51.984;9.838;2023-04-25T02:41:52;99346.00;;;8.00
75822;BMP180;64454;51.984;9.838;2023-04-25T02:44:20;99355.00;;;8.10
75822;BMP180;64454;51.984;9.838;2023-04-25T02:46:47;99351.00;;;8.10
75822;BMP180;64454;51.984;9.838;2023-04-25T02:49:17;99339.00;;;8.10
75822;BMP180;64454;51.984;9.838;2023-04-25T02:51:44;99346.00;;;8.30
75822;BMP180;64454;51.984;9.838;2023-04-25T02:54:11;99345.00;;;8.40
75822;BMP180;64454;51.984;9.838;2023-04-25T02:56:38;99357.00;;;8.00
75822;BMP180;64454;51.984;9.838;2023-04-25T02:59:05;99352.00;;;8.10
75822;BMP180;64454;51.984;9.838;2023-04-25T03:01:32;99351.00;;;8.10
75822;BMP180;64454;51.984;9.838;2023-04-25T03:03:59;99352.00;;;8.00
75822;BMP180;64454;51.984;9.838;2023-04-25T03:06:27;99354.00;;;7.90
75822;BMP180;64454;51.984;9.838;2023-04-25T03:08:54;99352.00;;;8.10
75822;BMP180;64454;51.984;9.838;2023-04-25T03:11:21;99364.00;;;8.00
75822;BMP180;64454;51.984;9.838;2023-04-25T03:13:48;99356.00;;;8.10
75822;BMP180;64454;51.984;9.838;2023-04-25T03:16:14;99360.00;;;8.30
75822;BMP180;64454;51.984;9.838;2023-04-25T03:18:41;99362.00;;;8.10
75822;BMP180;64454;51.984;9.838;2023-04-25T03:21:08;99359.00;;;8.30
75822;BMP180;64454;51.984;9.838;2023-04-25T03:23:36;99362.00;;;8.30
75822;BMP180;64454;51.984;9.838;2023-04-25T03:26:03;99362.00;;;8.30
75822;BMP180;64454;51.984;9.838;2023-04-25T03:28:30;99370.00;;;8.30
75822;BMP180;64454;51.984;9.838;2023-04-25T03:30:57;99369.00;;;8.20
75822;BMP180;64454;51.984;9.838;2023-04-25T03:33:23;99376.00;;;8.30
75822;BMP180;64454;51.984;9.838;2023-04-25T03:35:50;99375.00;;;8.20
75822;BMP180;64454;51.984;9.838;2023-04-25T03:38:17;99388.00;;;8.30
75822;BMP180;64454;51.984;9.838;2023-04-25T03:40:45;99396.00;;;8.20
75822;BMP180;64454;51.984;9.838;2023-04-25T03:43:12;99408.00;;;8.20
75822;BMP180;64454;51.984;9.838;2023-04-25T03:45:39;99399.00;;;8.20
75822;BMP180;64454;51.984;9.838;2023-04-25T03:48:06;99410.00;;;8.20
75822;BMP180;64454;51.984;9.838;2023-04-25T03:50:33;99404.00;;;7.90
75822;BMP180;64454;51.984;9.838;2023-04-25T03:53:00;99410.00;;;7.90
75822;BMP180;64454;51.984;9.838;2023-04-25T03:55:26;99408.00;;;8.00
75822;BMP180;64454;51.984;9.838;2023-04-25T03:57:54;99410.00;;;8.20
75822;BMP180;64454;51.984;9.838;2023-04-25T04:00:23;99416.00;;;7.80
75822;BMP180;64454;51.984;9.838;2023-04-25T04:02:50;99415.00;;;8.00
75822;BMP180;64454;51.984;9.838;2023-04-25T04:05:17;99412.00;;;8.20
75822;BMP180;64454;51.984;9.838;2023-04-25T04:07:44;99415.00;;;8.20
75822;BMP180;64454;51.984;9.838;2023-04-25T04:10:11;99410.00;;;8.10
75822;BMP180;64454;51.984;9.838;2023-04-25T04:12:38;99415.00;;;8.00
75822;BMP180;64454;51.984;9.838;2023-04-25T04:15:08;99416.00;;;8.10
75822;BMP180;64454;51.984;9.838;2023-04-25T04:17:35;99410.00;;;7.80
75822;BMP180;64454;51.984;9.838;2023-04-25T04:20:02;99406.00;;;8.00
75822;BMP180;64454;51.984;9.838;2023-04-25T04:22:29;99419.00;;;8.00
75822;BMP180;64454;51.984;9.838;2023-04-25T04:24:56;99427.00;;;8.30
75822;BMP180;64454;51.984;9.838;2023-04-25T04:27:23;99426.00;;;8.30
75822;BMP180;64454;51.984;9.838;2023-04-25T04:29:50;99427.00;;;8.10
75822;BMP180;64454;51.984;9.838;2023-04-25T04:32:19;99436.00;;;8.20
75822;BMP180;64454;51.984;9.838;2023-04-25T04:34:46;99432.00;;;8.10
75822;BMP180;64454;51.984;9.838;2023-04-25T04:37:14;99436.00;;;7.90
75822;BMP180;64454;51.984;9.838;2023-04-25T04:39:41;99437.00;;;7.80
75822;BMP180;64454;51.984;9.838;2023-04-25T04:42:08;99434.00;;;7.60
75822;BMP180;64454;51.984;9.838;2023-04-25T04:44:36;99435.00;;;7.50
75822;BMP180;64454;51.984;9.838;2023-04-25T04:47:04;99435.00;;;7.70
75822;BMP180;64454;51.984;9.838;2023-04-25T04:49:35;99439.00;;;7.90
75822;BMP180;64454;51.984;9.838;2023-04-25T04:52:02;99440.00;;;8.00
75822;BMP180;64454;51.984;9.838;2023-04-25T04:54:29;99447.00;;;8.20
75822;BMP180;64454;51.984;9.838;2023-04-25T04:56:55;99444.00;;;8.10
75822;BMP180;64454;51.984;9.838;2023-04-25T04:59:22;99450.00;;;8.30
75822;BMP180;64454;51.984;9.838;2023-04-25T05:01:49;99452.00;;;8.40
75822;BMP180;64454;51.984;9.838;2023-04-25T05:04:17;99463.00;;;8.30
75822;BMP180;64454;51.984;9.838;2023-04-25T05:06:46;99463.00;;;8.30
75822;BMP180;64454;51.984;9.838;2023-04-25T05:09:14;99464.00;;;8.10
75822;BMP180;64454;51.984;9.838;2023-04-25T05:11:42;99472.00;;;8.20
75822;BMP180;64454;51.984;9.838;2023-04-25T05:14:08;99479.00;;;7.90
75822;BMP180;64454;51.984;9.838;2023-04-25T05:16:35;99477.00;;;7.90
75822;BMP180;64454;51.984;9.838;2023-04-25T05:19:02;99477.00;;;7.80
75822;BMP180;64454;51.984;9.838;2023-04-25T05:21:29;99489.00;;;8.00
75822;BMP180;64454;51.984;9.838;2023-04-25T05:23:58;99489.00;;;8.00
75822;BMP180;64454;51.984;9.838;2023-04-25T05:26:25;99488.00;;;8.20
75822;BMP180;64454;51.984;9.838;2023-04-25T05:28:56;99491.00;;;8.30
75822;BMP180;64454;51.984;9.838;2023-04-25T05:31:23;99492.00;;;8.20
75822;BMP180;64454;51.984;9.838;2023-04-25T05:33:50;99490.00;;;8.40
75822;BMP180;64454;51.984;9.838;2023-04-25T05:36:18;99492.00;;;8.40
75822;BMP180;64454;51.984;9.838;2023-04-25T05:38:45;99499.00;;;8.40
75822;BMP180;64454;51.984;9.838;2023-04-25T05:41:13;99496.00;;;8.40
75822;BMP180;64454;51.984;9.838;2023-04-25T05:43:41;99507.00;;;8.40
75822;BMP180;64454;51.984;9.838;2023-04-25T05:46:10;99501.00;;;8.30
75822;BMP180;64454;51.984;9.838;2023-04-25T05:48:37;99505.00;;;8.40
75822;BMP180;64454;51.984;9.838;2023-04-25T05:51:05;99511.00;;;8.40
75822;BMP180;64454;51.984;9.838;2023-04-25T05:53:31;99516.00;;;8.50
75822;BMP180;64454;51.984;9.838;2023-04-25T05:55:58;99515.00;;;8.30
75822;BMP180;64454;51.984;9.838;2023-04-25T05:58:26;99517.00;;;8.30
75822;BMP180;64454;51.984;9.838;2023-04-25T06:00:53;99515.00;;;8.30
75822;BMP180;64454;51.984;9.838;2023-04-25T06:03:20;99520.00;;;8.30
75822;BMP180;64454;51.984;9.838;2023-04-25T06:05:48;99521.00;;;8.20
75822;BMP180;64454;51.984;9.838;2023-04-25T06:08:14;99528.00;;;8.20
75822;BMP180;64454;51.984;9.838;2023-04-25T06:10:41;99534.00;;;8.20
75822;BMP180;64454;51.984;9.838;2023-04-25T06:13:08;99537.00;;;8.50
75822;BMP180;64454;51.984;9.838;2023-04-25T06:15:36;99541.00;;;8.50
75822;BMP180;64454;51.984;9.838;2023-04-25T06:18:03;99542.00;;;8.70
75822;BMP180;64454;51.984;9.838;2023-04-25T06:20:30;99536.00;;;8.60
75822;BMP180;64454;51.984;9.838;2023-04-25T06:22:57;99537.00;;;8.60
75822;BMP180;64454;51.984;9.838;2023-04-25T06:25:23;99550.00;;;8.60
75822;BMP180;64454;51.984;9.838;2023-04-25T06:27:50;99551.00;;;8.50
75822;BMP180;64454;51.984;9.838;2023-04-25T06:30:17;99551.00;;;8.80
75822;BMP180;64454;51.984;9.838;2023-04-25T06:32:49;99557.00;;;8.60
75822;BMP180;64454;51.984;9.838;2023-04-25T06:35:16;99551.00;;;8.60
75822;BMP180;64454;51.984;9.838;2023-04-25T06:37:42;99554.00;;;8.50
75822;BMP180;64454;51.984;9.838;2023-04-25T06:40:10;99560.00;;;8.80
75822;BMP180;64454;51.984;9.838;2023-04-25T06:42:37;99566.00;;;8.90
75822;BMP180;64454;51.984;9.838;2023-04-25T06:45:05;99555.00;;;8.70
75822;BMP180;64454;51.984;9.838;2023-04-25T06:47:32;99554.00;;;8.70
75822;BMP180;64454;51.984;9.838;2023-04-25T06:50:00;99565.00;;;8.70
75822;BMP180;64454;51.984;9.838;2023-04-25T06:52:27;99563.00;;;9.10
75822;BMP180;64454;51.984;9.838;2023-04-25T06:54:54;99564.00;;;9.20
75822;BMP180;64454;51.984;9.838;2023-04-25T06:57:20;99566.00;;;9.10
75822;BMP180;64454;51.984;9.838;2023-04-25T06:59:47;99567.00;;;9.10
75822;BMP180;64454;51.984;9.838;2023-04-25T07:02:14;99570.00;;;9.10
75822;BMP180;64454;51.984;9.838;2023-04-25T07:04:41;99551.00;;;9.70
75822;BMP180;64454;51.984;9.838;2023-04-25T07:07:09;99568.00;;;10.00
75822;BMP180;64454;51.984;9.838;2023-04-25T07:09:36;99563.00;;;10.30
75822;BMP180;64454;51.984;9.838;2023-04-25T07:12:03;99569.00;;;10.50
75822;BMP180;64454;51.984;9.838;2023-04-25T07:14:30;99564.00;;;10.80
75822;BMP180;64454;51.984;9.838;2023-04-25T07:16:57;99557.00;;;11.20
75822;BMP180;64454;51.984;9.838;2023-04-25T07:19:24;99556.00;;;11.10
75822;BMP180;64454;51.984;9.838;2023-04-25T07:21:52;99551.00;;;11.30
75822;BMP180;64454;51.984;9.838;2023-04-25T07:24:20;99566.00;;;11.40
75822;BMP180;64454;51.984;9.838;2023-04-25T07:26:47;99563.00;;;11.30
75822;BMP180;64454;51.984;9.838;2023-04-25T07:29:15;99576.00;;;11.20
75822;BMP180;64454;51.984;9.838;2023-04-25T07:31:43;99567.00;;;10.90
75822;BMP180;64454;51.984;9.838;2023-04-25T07:34:10;99582.00;;;11.20
75822;BMP180;64454;51.984;9.838;2023-04-25T07:36:37;99571.00;;;11.60
75822;BMP180;64454;51.984;9.838;2023-04-25T07:39:04;99579.00;;;11.80
75822;BMP180;64454;51.984;9.838;2023-04-25T07:41:32;99583.00;;;11.60
75822;BMP180;64454;51.984;9.838;2023-04-25T07:44:00;99580.00;;;11.60
75822;BMP180;64454;51.984;9.838;2023-04-25T07:46:27;99579.00;;;11.10
75822;BMP180;64454;51.984;9.838;2023-04-25T07:48:53;99582.00;;;10.90
75822;BMP180;64454;51.984;9.838;2023-04-25T07:51:20;99579.00;;;11.10
75822;BMP180;64454;51.984;9.838;2023-04-25T07:53:47;99588.00;;;11.20
75822;BMP180;64454;51.984;9.838;2023-04-25T07:56:14;99598.00;;;11.00
75822;BMP180;64454;51.984;9.838;2023-04-25T07:58:42;99595.00;;;11.30
75822;BMP180;64454;51.984;9.838;2023-04-25T08:01:09;99600.00;;;10.80
75822;BMP180;64454;51.984;9.838;2023-04-25T08:03:36;99597.00;;;10.70
75822;BMP180;64454;51.984;9.838;2023-04-25T08:06:03;99598.00;;;10.60
75822;BMP180;64454;51.984;9.838;2023-04-25T08:08:30;99611.00;;;10.50
75822;BMP180;64454;51.984;9.838;2023-04-25T08:10:57;99614.00;;;10.30
75822;BMP180;64454;51.984;9.838;2023-04-25T08:13:24;99612.00;;;10.30
75822;BMP180;64454;51.984;9.838;2023-04-25T08:15:52;99612.00;;;10.40
75822;BMP180;64454;51.984;9.838;2023-04-25T08:18:19;99622.00;;;10.50
75822;BMP180;64454;51.984;9.838;2023-04-25T08:20:45;99629.00;;;10.30
75822;BMP180;64454;51.984;9.838;2023-04-25T08:23:12;99623.00;;;10.40
75822;BMP180;64454;51.984;9.838;2023-04-25T08:25:39;99637.00;;;10.50
75822;BMP180;64454;51.984;9.838;2023-04-25T08:28:06;99636.00;;;10.60
75822;BMP180;64454;51.984;9.838;2023-04-25T08:30:33;99633.00;;;10.90
75822;BMP180;64454;51.984;9.838;2023-04-25T08:33:01;99635.00;;;10.90
75822;BMP180;64454;51.984;9.838;2023-04-25T08:35:28;99614.00;;;11.60
75822;BMP180;64454;51.984;9.838;2023-04-25T08:37:55;99620.00;;;13.90
75822;BMP180;64454;51.984;9.838;2023-04-25T08:40:23;99629.00;;;13.30
75822;BMP180;64454;51.984;9.838;2023-04-25T08:42:53;99633.00;;;13.00
75822;BMP180;64454;51.984;9.838;2023-04-25T08:45:21;99627.00;;;13.50
75822;BMP180;64454;51.984;9.838;2023-04-25T08:47:51;99641.00;;;13.60
75822;BMP180;64454;51.984;9.838;2023-04-25T08:50:22;99645.00;;;13.30
75822;BMP180;64454;51.984;9.838;2023-04-25T08:52:50;99643.00;;;12.80
75822;BMP180;64454;51.984;9.838;2023-04-25T08:55:20;99656.00;;;12.00
75822;BMP180;64454;51.984;9.838;2023-04-25T08:57:48;99656.00;;;11.60
75822;BMP180;64454;51.984;9.838;2023-04-25T09:00:17;99669.00;;;11.70
75822;BMP180;64454;51.984;9.838;2023-04-25T09:02:46;99669.00;;;11.60
75822;BMP180;64454;51.984;9.838;2023-04-25T09:05:14;99664.00;;;11.10
75822;BMP180;64454;51.984;9.838;2023-04-25T09:07:42;99668.00;;;11.40
75822;BMP180;64454;51.984;9.838;2023-04-25T09:10:09;99672.00;;;11.60
75822;BMP180;64454;51.984;9.838;2023-04-25T09:12:36;99678.00;;;11.20
75822;BMP180;64454;51.984;9.838;2023-04-25T09:15:06;99691.00;;;10.80
75822;BMP180;64454;51.984;9.838;2023-04-25T09:17:34;99694.00;;;10.50
75822;BMP180;64454;51.984;9.838;2023-04-25T09:20:07;99691.00;;;10.60
75822;BMP180;64454;51.984;9.838;2023-04-25T09:22:36;99693.00;;;10.70
75822;BMP180;64454;51.984;9.838;2023-04-25T09:25:08;99703.00;;;10.40
75822;BMP180;64454;51.984;9.838;2023-04-25T09:27:36;99697.00;;;10.80
75822;BMP180;64454;51.984;9.838;2023-04-25T09:30:03;99703.00;;;10.90
75822;BMP180;64454;51.984;9.838;2023-04-25T09:32:30;99707.00;;;11.50
75822;BMP180;64454;51.984;9.838;2023-04-25T09:34:57;99709.00;;;12.00
75822;BMP180;64454;51.984;9.838;2023-04-25T09:37:26;99718.00;;;11.80
75822;BMP180;64454;51.984;9.838;2023-04-25T09:39:55;99724.00;;;11.50
75822;BMP180;64454;51.984;9.838;2023-04-25T09:42:25;99714.00;;;11.50
75822;BMP180;64454;51.984;9.838;2023-04-25T09:44:55;99717.00;;;11.60
75822;BMP180;64454;51.984;9.838;2023-04-25T09:47:25;99711.00;;;11.30
75822;BMP180;64454;51.984;9.838;2023-04-25T09:49:53;99731.00;;;11.00
75822;BMP180;64454;51.984;9.838;2023-04-25T09:52:22;99728.00;;;10.90
75822;BMP180;64454;51.984;9.838;2023-04-25T09:54:50;99724.00;;;11.00
75822;BMP180;64454;51.984;9.838;2023-04-25T09:57:19;99728.00;;;10.90
75822;BMP180;64454;51.984;9.838;2023-04-25T09:59:49;99739.00;;;10.70
75822;BMP180;64454;51.984;9.838;2023-04-25T10:02:19;99751.00;;;10.60
75822;BMP180;64454;51.984;9.838;2023-04-25T10:04:49;99744.00;;;10.80
75822;BMP180;64454;51.984;9.838;2023-04-25T10:07:19;99753.00;;;10.70
75822;BMP180;64454;51.984;9.838;2023-04-25T10:09:48;99752.00;;;10.60
75822;BMP180;64454;51.984;9.838;2023-04-25T10:12:17;99749.00;;;10.70
75822;BMP180;64454;51.984;9.838;2023-04-25T10:14:45;99750.00;;;11.00
75822;BMP180;64454;51.984;9.838;2023-04-25T10:17:14;99746.00;;;11.20
75822;BMP180;64454;51.984;9.838;2023-04-25T10:19:41;99757.00;;;11.60
75822;BMP180;64454;51.984;9.838;2023-04-25T10:22:16;99758.00;;;11.30
75822;BMP180;64454;51.984;9.838;2023-04-25T10:24:44;99752.00;;;11.60
75822;BMP180;64454;51.984;9.838;2023-04-25T10:27:13;99756.00;;;11.50
75822;BMP180;64454;51.984;9.838;2023-04-25T10:29:41;99763.00;;;11.10
75822;BMP180;64454;51.984;9.838;2023-04-25T10:32:08;99768.00;;;11.30
75822;BMP180;64454;51.984;9.838;2023-04-25T10:34:42;99766.00;;;11.30
75822;BMP180;64454;51.984;9.838;2023-04-25T10:37:13;99767.00;;;11.70
75822;BMP180;64454;51.984;9.838;2023-04-25T10:39:41;99769.00;;;11.60
75822;BMP180;64454;51.984;9.838;2023-04-25T10:42:08;99765.00;;;11.20
75822;BMP180;64454;51.984;9.838;2023-04-25T10:44:37;99773.00;;;11.20
75822;BMP180;64454;51.984;9.838;2023-04-25T10:47:08;99776.00;;;11.30
75822;BMP180;64454;51.984;9.838;2023-04-25T10:49:37;99778.00;;;10.60
75822;BMP180;64454;51.984;9.838;2023-04-25T10:52:14;99786.00;;;10.80
75822;BMP180;64454;51.984;9.838;2023-04-25T10:54:42;99790.00;;;10.50
75822;BMP180;64454;51.984;9.838;2023-04-25T10:57:37;99786.00;;;10.70
75822;BMP180;64454;51.984;9.838;2023-04-25T11:00:11;99777.00;;;10.60
75822;BMP180;64454;51.984;9.838;2023-04-25T11:02:43;99778.00;;;10.90
75822;BMP180;64454;51.984;9.838;2023-04-25T11:05:22;99766.00;;;11.60
75822;BMP180;64454;51.984;9.838;2023-04-25T11:07:52;99773.00;;;11.70
75822;BMP180;64454;51.984;9.838;2023-04-25T11:10:20;99775.00;;;11.90
75822;BMP180;64454;51.984;9.838;2023-04-25T11:12:51;99774.00;;;11.90
75822;BMP180;64454;51.984;9.838;2023-04-25T11:15:18;99772.00;;;12.00
75822;BMP180;64454;51.984;9.838;2023-04-25T11:17:44;99741.00;;;14.60
75822;BMP180;64454;51.984;9.838;2023-04-25T11:20:12;99732.00;;;14.40
75822;BMP180;64454;51.984;9.838;2023-04-25T11:22:44;99759.00;;;14.90
75822;BMP180;64454;51.984;9.838;2023-04-25T11:25:14;99731.00;;;15.00
75822;BMP180;64454;51.984;9.838;2023-04-25T11:27:51;99780.00;;;15.70
75822;BMP180;64454;51.984;9.838;2023-04-25T11:30:20;99781.00;;;14.70
75822;BMP180;64454;51.984;9.838;2023-04-25T11:32:48;99748.00;;;14.90
75822;BMP180;64454;51.984;9.838;2023-04-25T11:35:15;99740.00;;;15.30
75822;BMP180;64454;51.984;9.838;2023-04-25T11:37:44;99736.00;;;15.40
75822;BMP180;64454;51.984;9.838;2023-04-25T11:40:12;99747.00;;;15.60
75822;BMP180;64454;51.984;9.838;2023-04-25T11:42:44;99752.00;;;15.80
75822;BMP180;64454;51.984;9.838;2023-04-25T11:45:14;99744.00;;;15.80
75822;BMP180;64454;51.984;9.838;2023-04-25T11:47:42;99737.00;;;16.00
75822;BMP180;64454;51.984;9.838;2023-04-25T11:50:10;99738.00;;;16.70
75822;BMP180;64454;51.984;9.838;2023-04-25T11:52:42;99742.00;;;16.30
75822;BMP180;64454;51.984;9.838;2023-04-25T11:55:15;99742.00;;;15.60
75822;BMP180;64454;51.984;9.838;2023-04-25T11:57:44;99751.00;;;15.80
75822;BMP180;64454;51.984;9.838;2023-04-25T12:00:14;99766.00;;;16.50
75822;BMP180;64454;51.984;9.838;2023-04-25T12:02:42;99761.00;;;16.50
75822;BMP180;64454;51.984;9.838;2023-04-25T12:05:11;99754.00;;;16.40
75822;BMP180;64454;51.984;9.838;2023-04-25T12:07:38;99773.00;;;15.20
75822;BMP180;64454;51.984;9.838;2023-04-25T12:10:09;99772.00;;;14.80
75822;BMP180;64454;51.984;9.838;2023-04-25T12:12:41;99788.00;;;14.30
75822;BMP180;64454;51.984;9.838;2023-04-25T12:15:10;99781.00;;;13.60
75822;BMP180;64454;51.984;9.838;2023-04-25T12:17:38;99784.00;;;13.40
75822;BMP180;64454;51.984;9.838;2023-04-25T12:20:09;99805.00;;;12.70
75822;BMP180;64454;51.984;9.838;2023-04-25T12:22:36;99794.00;;;12.60
75822;BMP180;64454;51.984;9.838;2023-04-25T12:25:03;99798.00;;;12.40
75822;BMP180;64454;51.984;9.838;2023-04-25T12:27:31;99799.00;;;12.70
75822;BMP180;64454;51.984;9.838;2023-04-25T12:30:00;99808.00;;;12.40
75822;BMP180;64454;51.984;9.838;2023-04-25T12:32:27;99804.00;;;12.20
75822;BMP180;64454;51.984;9.838;2023-04-25T12:34:54;99810.00;;;12.00
75822;BMP180;64454;51.984;9.838;2023-04-25T12:37:21;99813.00;;;12.20
75822;BMP180;64454;51.984;9.838;2023-04-25T12:39:48;99817.00;;;12.30
75822;BMP180;64454;51.984;9.838;2023-04-25T12:42:14;99809.00;;;12.30
75822;BMP180;64454;51.984;9.838;2023-04-25T12:44:41;99825.00;;;12.10
75822;BMP180;64454;51.984;9.838;2023-04-25T12:47:09;99812.00;;;12.00
75822;BMP180;64454;51.984;9.838;2023-04-25T12:49:36;99820.00;;;12.10
75822;BMP180;64454;51.984;9.838;2023-04-25T12:52:03;99796.00;;;13.30
75822;BMP180;64454;51.984;9.838;2023-04-25T12:54:30;99805.00;;;14.40
75822;BMP180;64454;51.984;9.838;2023-04-25T12:56:57;99805.00;;;14.70
75822;BMP180;64454;51.984;9.838;2023-04-25T12:59:24;99799.00;;;15.00
75822;BMP180;64454;51.984;9.838;2023-04-25T13:01:51;99789.00;;;15.50
75822;BMP180;64454;51.984;9.838;2023-04-25T13:04:20;99801.00;;;16.10
75822;BMP180;64454;51.984;9.838;2023-04-25T13:06:47;99789.00;;;16.00
75822;BMP180;64454;51.984;9.838;2023-04-25T13:09:15;99794.00;;;16.00
75822;BMP180;64454;51.984;9.838;2023-04-25T13:11:43;99795.00;;;16.30
75822;BMP180;64454;51.984;9.838;2023-04-25T13:14:11;99807.00;;;15.90
75822;BMP180;64454;51.984;9.838;2023-04-25T13:16:38;99792.00;;;16.50
75822;BMP180;64454;51.984;9.838;2023-04-25T13:19:05;99808.00;;;16.90
75822;BMP180;64454;51.984;9.838;2023-04-25T13:21:35;99789.00;;;17.00
75822;BMP180;64454;51.984;9.838;2023-04-25T13:24:02;99784.00;;;16.30
75822;BMP180;64454;51.984;9.838;2023-04-25T13:26:28;99786.00;;;16.80
75822;BMP180;64454;51.984;9.838;2023-04-25T13:28:55;99804.00;;;15.30
75822;BMP180;64454;51.984;9.838;2023-04-25T13:31:22;99793.00;;;14.70
75822;BMP180;64454;51.984;9.838;2023-04-25T13:33:50;99792.00;;;15.90
75822;BMP180;64454;51.984;9.838;2023-04-25T13:36:16;99790.00;;;16.70
75822;BMP180;64454;51.984;9.838;2023-04-25T13:38:45;99797.00;;;17.10
75822;BMP180;64454;51.984;9.838;2023-04-25T13:41:13;99809.00;;;17.00
75822;BMP180;64454;51.984;9.838;2023-04-25T13:43:45;99821.00;;;16.50
75822;BMP180;64454;51.984;9.838;2023-04-25T13:46:12;99829.00;;;16.00
75822;BMP180;64454;51.984;9.838;2023-04-25T13:48:41;99834.00;;;15.90
75822;BMP180;64454;51.984;9.838;2023-04-25T13:51:13;99826.00;;;15.30
75822;BMP180;64454;51.984;9.838;2023-04-25T13:53:41;99821.00;;;14.50
75822;BMP180;64454;51.984;9.838;2023-04-25T13:56:09;99823.00;;;15.40
75822;BMP180;64454;51.984;9.838;2023-04-25T13:58:37;99826.00;;;15.00
75822;BMP180;64454;51.984;9.838;2023-04-25T14:01:04;99832.00;;;15.10
75822;BMP180;64454;51.984;9.838;2023-04-25T14:03:31;99839.00;;;14.80
75822;BMP180;64454;51.984;9.838;2023-04-25T14:05:58;99832.00;;;14.60
75822;BMP180;64454;51.984;9.838;2023-04-25T14:08:25;99835.00;;;13.90
75822;BMP180;64454;51.984;9.838;2023-04-25T14:10:52;99846.00;;;13.90
75822;BMP180;64454;51.984;9.838;2023-04-25T14:13:20;99850.00;;;13.90
75822;BMP180;64454;51.984;9.838;2023-04-25T14:15:47;99848.00;;;13.70
75822;BMP180;64454;51.984;9.838;2023-04-25T14:18:13;99848.00;;;13.70